Time;durP1;ratioP1;P1;durP2;ratioP2;P2;SDS_P1;SDS_P2;PMS_P1;PMS_P2;Temp;Humidity;BMP_temperature;BMP_pressure;BME280_temperature;BME280_humidity;BME280_pressure;Samples;Min_cycle;Max_cycle;Signal;HPM_P1;HPM_P2
2022/01/07 00:01:00;;;;;;;16.30;6.10;;;3.70;99.90;;;;;;5127798;27;20136;-58
2022/01/07 00:03:27;;;;;;;17.98;6.40;;;3.70;99.90;;;;;;5128788;27;20050;-58
2022/01/07 00:05:53;;;;;;;16.45;6.72;;;3.70;99.90;;;;;;5129359;27;20066;-57
2022/01/07 00:08:19;;;;;;;13.20;6.30;;;3.70;99.90;;;;;;5124406;27;20039;-58
2022/01/07 00:10:45;;;;;;;13.85;5.90;;;3.70;99.90;;;;;;5125505;27;20398;-58
2022/01/07 00:13:12;;;;;;;13.25;5.93;;;3.70;99.90;;;;;;5095887;27;20047;-57
2022/01/07 00:15:40;;;;;;;16.98;6.22;;;3.70;99.90;;;;;;5093848;27;20039;-58
2022/01/07 00:18:07;;;;;;;14.52;6.10;;;3.70;99.90;;;;;;5124173;27;20039;-55
2022/01/07 00:20:33;;;;;;;18.45;6.22;;;3.70;99.90;;;;;;5112399;27;20104;-58
2022/01/07 00:22:59;;;;;;;14.85;6.93;;;3.70;99.90;;;;;;5132194;27;20058;-58
2022/01/07 00:25:25;;;;;;;14.05;6.40;;;3.70;99.90;;;;;;5109636;27;20039;-58
2022/01/07 00:27:51;;;;;;;15.60;6.72;;;3.60;99.90;;;;;;5124165;27;20409;-59
2022/01/07 00:30:19;;;;;;;20.60;6.82;;;3.60;99.90;;;;;;5127072;27;20119;-58
2022/01/07 00:32:45;;;;;;;22.17;7.20;;;3.60;99.90;;;;;;5111610;27;20413;-58
2022/01/07 00:35:13;;;;;;;21.08;7.43;;;3.60;99.90;;;;;;5124387;27;20065;-56
2022/01/07 00:37:39;;;;;;;16.67;7.10;;;3.60;99.90;;;;;;5126311;27;20051;-59
2022/01/07 00:40:07;;;;;;;19.88;7.30;;;3.60;99.90;;;;;;5105634;27;20413;-56
2022/01/07 00:42:33;;;;;;;22.98;7.53;;;3.50;99.90;;;;;;5121261;27;20070;-56
2022/01/07 00:44:59;;;;;;;21.13;8.30;;;3.50;99.90;;;;;;5109155;27;20114;-57
2022/01/07 00:47:25;;;;;;;18.30;7.30;;;3.50;99.90;;;;;;5124785;27;20038;-59
2022/01/07 00:49:51;;;;;;;19.50;7.78;;;3.50;99.90;;;;;;5105742;27;20042;-58
2022/01/07 00:52:17;;;;;;;16.50;7.65;;;3.40;99.90;;;;;;5124570;27;20189;-58
2022/01/07 00:54:43;;;;;;;16.02;7.50;;;3.40;99.90;;;;;;5122435;27;20043;-59
2022/01/07 00:57:09;;;;;;;15.85;8.40;;;3.40;99.90;;;;;;5122501;27;20191;-58
2022/01/07 00:59:35;;;;;;;21.60;8.73;;;3.30;99.90;;;;;;5130840;27;20038;-58
2022/01/07 01:02:01;;;;;;;20.30;8.00;;;3.30;99.90;;;;;;5123628;27;20088;-56
2022/01/07 01:04:27;;;;;;;17.60;8.00;;;3.30;99.90;;;;;;5120589;27;20114;-58
2022/01/07 01:06:53;;;;;;;16.30;8.45;;;3.20;99.90;;;;;;5111327;27;20047;-58
2022/01/07 01:09:19;;;;;;;23.15;6.93;;;3.20;99.90;;;;;;5074982;27;20058;-58
2022/01/07 01:11:45;;;;;;;16.50;7.85;;;3.20;99.90;;;;;;5104326;27;20043;-56
2022/01/07 01:14:11;;;;;;;17.60;8.20;;;3.20;99.90;;;;;;5129815;27;20053;-57
2022/01/07 01:16:37;;;;;;;20.30;7.43;;;3.20;99.90;;;;;;5126969;27;20039;-58
2022/01/07 01:19:06;;;;;;;19.05;8.30;;;3.10;99.90;;;;;;5106144;27;20098;-57
2022/01/07 01:21:33;;;;;;;17.02;7.43;;;3.10;99.90;;;;;;5112561;27;20043;-58
2022/01/07 01:23:59;;;;;;;19.40;7.53;;;3.10;99.90;;;;;;5079036;27;20039;-58
2022/01/07 01:26:25;;;;;;;15.57;7.55;;;3.10;99.90;;;;;;5120441;27;20401;-59
2022/01/07 01:28:50;;;;;;;18.17;7.90;;;3.00;99.90;;;;;;5119335;27;20066;-58
2022/01/07 01:31:17;;;;;;;15.90;7.75;;;3.00;99.90;;;;;;5123479;27;20113;-58
2022/01/07 01:33:45;;;;;;;16.02;8.00;;;3.00;99.90;;;;;;5124170;27;20117;-56
2022/01/07 01:36:11;;;;;;;19.50;8.02;;;2.90;99.90;;;;;;5123731;27;20498;-58
2022/01/07 01:38:38;;;;;;;19.85;8.32;;;2.90;99.90;;;;;;5089876;27;20630;-58
2022/01/07 01:41:06;;;;;;;23.55;8.45;;;2.90;99.90;;;;;;5124944;27;20043;-58
2022/01/07 01:43:32;;;;;;;20.17;7.95;;;2.90;99.90;;;;;;5103036;27;20489;-58
2022/01/07 01:45:58;;;;;;;17.33;8.38;;;2.80;99.90;;;;;;5118996;27;20035;-56
2022/01/07 01:48:23;;;;;;;24.02;8.45;;;2.80;99.90;;;;;;5122372;27;20039;-58
2022/01/07 01:50:50;;;;;;;26.30;9.05;;;2.80;99.90;;;;;;5126580;27;20544;-58
2022/01/07 01:53:16;;;;;;;18.38;8.88;;;2.80;99.90;;;;;;5123128;27;20038;-59
2022/01/07 01:55:42;;;;;;;20.58;8.70;;;2.70;99.90;;;;;;5123325;27;20043;-58
2022/01/07 01:58:11;;;;;;;22.23;8.93;;;2.80;99.90;;;;;;5123981;27;20046;-59
2022/01/07 02:00:37;;;;;;;16.70;8.38;;;2.70;99.90;;;;;;5103181;27;20144;-58
2022/01/07 02:03:03;;;;;;;14.32;8.55;;;2.70;99.90;;;;;;5123759;27;20503;-59
2022/01/07 02:05:29;;;;;;;20.20;9.18;;;2.70;99.90;;;;;;5119492;27;20046;-56
2022/01/07 02:07:55;;;;;;;18.13;8.52;;;2.70;99.90;;;;;;5087162;27;20043;-58
2022/01/07 02:10:21;;;;;;;22.77;8.68;;;2.70;99.90;;;;;;5117992;27;20079;-58
2022/01/07 02:12:47;;;;;;;22.45;9.05;;;2.70;99.90;;;;;;5123797;27;20484;-58
2022/01/07 02:15:14;;;;;;;18.67;8.63;;;2.70;99.90;;;;;;5121873;27;20382;-58
2022/01/07 02:17:48;;;;;;;21.80;8.82;;;2.70;99.90;;;;;;5122892;27;20476;-58
2022/01/07 02:20:17;;;;;;;15.15;9.35;;;2.70;99.90;;;;;;5122489;27;20066;-59
2022/01/07 02:22:43;;;;;;;20.00;8.60;;;2.60;99.90;;;;;;5121412;27;20755;-57
2022/01/07 02:25:10;;;;;;;18.42;9.75;;;2.60;99.90;;;;;;5127176;27;20078;-58
2022/01/07 02:27:41;;;;;;;15.88;9.35;;;2.70;99.90;;;;;;5119320;27;20089;-56
2022/01/07 02:30:10;;;;;;;19.73;9.25;;;2.70;99.90;;;;;;5101085;27;20046;-58
2022/01/07 02:32:36;;;;;;;22.35;9.90;;;2.60;99.90;;;;;;5125483;27;20065;-57
2022/01/07 02:35:02;;;;;;;16.33;9.43;;;2.70;99.90;;;;;;5125256;27;20054;-58
2022/01/07 02:37:28;;;;;;;22.58;9.95;;;2.70;99.90;;;;;;5109975;27;20395;-59
2022/01/07 02:39:54;;;;;;;15.80;10.13;;;2.70;99.90;;;;;;5127884;27;20034;-57
2022/01/07 02:42:20;;;;;;;17.63;9.88;;;2.70;99.90;;;;;;5123268;27;20074;-59
2022/01/07 02:44:46;;;;;;;16.52;9.77;;;2.70;99.90;;;;;;5120497;27;20092;-59
2022/01/07 02:47:12;;;;;;;15.55;9.30;;;2.60;99.90;;;;;;5123026;27;20035;-58
2022/01/07 02:49:38;;;;;;;14.88;9.85;;;2.70;99.90;;;;;;5122902;27;20077;-56
2022/01/07 02:52:04;;;;;;;15.55;9.93;;;2.70;99.90;;;;;;5104501;27;20043;-59
2022/01/07 02:54:30;;;;;;;17.83;10.05;;;2.70;99.90;;;;;;5103863;27;20047;-58
2022/01/07 02:56:56;;;;;;;17.20;9.43;;;2.70;99.90;;;;;;5120163;27;20507;-59
2022/01/07 02:59:21;;;;;;;17.38;9.82;;;2.60;99.90;;;;;;5121893;27;20861;-58
2022/01/07 03:01:48;;;;;;;15.23;10.20;;;2.70;99.90;;;;;;5122133;27;20119;-58
2022/01/07 03:04:14;;;;;;;19.50;10.20;;;2.70;99.90;;;;;;5121167;27;20043;-58
2022/01/07 03:06:41;;;;;;;20.58;9.68;;;2.70;99.90;;;;;;5117106;27;20095;-57
2022/01/07 03:09:07;;;;;;;17.27;9.98;;;2.70;99.90;;;;;;5121997;27;20036;-58
2022/01/07 03:11:34;;;;;;;17.20;10.30;;;2.70;99.90;;;;;;5108699;27;20442;-57
2022/01/07 03:13:59;;;;;;;16.48;10.38;;;2.70;99.90;;;;;;5124589;27;20532;-59
2022/01/07 03:16:25;;;;;;;13.80;10.30;;;2.70;99.90;;;;;;5110973;27;20047;-59
2022/01/07 03:18:51;;;;;;;15.05;10.82;;;2.70;99.90;;;;;;5123692;27;20051;-59
2022/01/07 03:21:17;;;;;;;17.05;10.70;;;2.70;99.90;;;;;;5126215;27;20051;-59
2022/01/07 03:23:44;;;;;;;17.38;11.13;;;2.70;99.90;;;;;;5104093;27;20058;-59
2022/01/07 03:26:10;;;;;;;18.63;10.70;;;2.70;99.90;;;;;;5112275;27;20114;-58
2022/01/07 03:28:38;;;;;;;17.40;10.02;;;2.70;99.90;;;;;;5124957;27;20075;-58
2022/01/07 03:31:05;;;;;;;16.05;10.20;;;2.70;99.90;;;;;;5122926;27;20493;-59
2022/01/07 03:33:31;;;;;;;13.15;10.13;;;2.60;99.90;;;;;;5126897;27;20478;-59
2022/01/07 03:35:57;;;;;;;14.77;10.23;;;2.60;99.90;;;;;;5126335;27;20047;-58
2022/01/07 03:38:22;;;;;;;18.00;11.27;;;2.70;99.90;;;;;;5113324;27;20096;-58
2022/01/07 03:40:49;;;;;;;17.35;10.73;;;2.70;99.90;;;;;;5121930;27;20145;-57
2022/01/07 03:43:15;;;;;;;19.15;11.13;;;2.70;99.90;;;;;;5127031;27;20432;-58
2022/01/07 03:45:41;;;;;;;19.50;11.15;;;2.70;99.90;;;;;;5124980;27;20043;-58
2022/01/07 03:48:07;;;;;;;18.02;11.07;;;2.70;99.90;;;;;;5105833;27;20046;-58
2022/01/07 03:50:33;;;;;;;16.73;11.05;;;2.70;99.90;;;;;;5124344;27;20043;-58
2022/01/07 03:52:59;;;;;;;17.90;10.82;;;2.70;99.90;;;;;;5127926;27;20122;-58
2022/01/07 03:55:27;;;;;;;22.63;11.35;;;2.70;99.90;;;;;;5106250;27;20051;-58
2022/01/07 03:57:54;;;;;;;18.42;12.15;;;2.70;99.90;;;;;;5125123;27;20084;-56
2022/01/07 04:00:25;;;;;;;21.70;11.75;;;2.70;99.90;;;;;;5125098;27;20109;-58
2022/01/07 04:02:52;;;;;;;19.92;11.82;;;2.70;99.90;;;;;;5126234;27;20143;-58
2022/01/07 04:05:22;;;;;;;17.85;11.77;;;2.70;99.90;;;;;;5121302;27;20508;-59
2022/01/07 04:07:48;;;;;;;18.17;11.80;;;2.70;99.90;;;;;;5105409;27;20038;-58
2022/01/07 04:10:14;;;;;;;17.70;11.63;;;2.70;99.90;;;;;;5107034;27;20047;-58
2022/01/07 04:12:40;;;;;;;17.67;11.20;;;2.70;99.90;;;;;;5126538;27;20072;-56
2022/01/07 04:15:09;;;;;;;16.15;11.55;;;2.70;99.90;;;;;;5123845;27;20047;-58
2022/01/07 04:17:41;;;;;;;19.38;11.68;;;2.70;99.90;;;;;;5128005;27;20447;-58
2022/01/07 04:20:10;;;;;;;17.45;12.07;;;2.70;99.90;;;;;;5094840;27;20051;-58
2022/01/07 04:22:36;;;;;;;20.05;12.77;;;2.70;99.90;;;;;;5125288;27;20062;-57
2022/01/07 04:25:04;;;;;;;17.08;11.63;;;2.70;99.90;;;;;;5126870;27;20445;-58
2022/01/07 04:27:30;;;;;;;18.75;11.52;;;2.70;99.90;;;;;;5110886;27;20960;-59
2022/01/07 04:29:56;;;;;;;17.35;10.77;;;2.70;99.90;;;;;;5105874;27;20102;-56
2022/01/07 04:32:22;;;;;;;13.32;10.90;;;2.70;99.90;;;;;;5093431;27;20109;-59
2022/01/07 04:34:48;;;;;;;17.17;11.88;;;2.70;99.90;;;;;;5106471;27;20051;-59
2022/01/07 04:37:15;;;;;;;16.60;11.40;;;2.80;99.90;;;;;;5094078;27;20169;-58
2022/01/07 04:39:41;;;;;;;18.40;11.40;;;2.80;99.90;;;;;;5104118;27;20489;-57
2022/01/07 04:42:07;;;;;;;18.25;11.88;;;2.80;99.90;;;;;;5110065;27;20037;-56
2022/01/07 04:44:35;;;;;;;18.20;11.77;;;2.80;99.90;;;;;;5107577;27;20845;-59
2022/01/07 04:47:01;;;;;;;17.85;11.52;;;2.80;99.90;;;;;;5107790;27;20043;-57
2022/01/07 04:49:27;;;;;;;15.63;11.35;;;2.80;99.90;;;;;;5101109;27;20093;-58
2022/01/07 04:51:53;;;;;;;16.23;11.88;;;2.80;99.90;;;;;;5102892;27;20043;-56
2022/01/07 04:54:18;;;;;;;18.17;12.07;;;2.80;99.90;;;;;;5102670;27;20063;-59
2022/01/07 04:56:44;;;;;;;18.40;12.00;;;2.80;99.90;;;;;;5102170;27;20118;-58
2022/01/07 04:59:10;;;;;;;17.05;11.55;;;2.80;99.90;;;;;;5103382;27;20188;-56
2022/01/07 05:01:35;;;;;;;20.80;12.52;;;2.90;99.90;;;;;;5105494;27;20047;-58
2022/01/07 05:04:01;;;;;;;20.70;12.55;;;2.90;99.90;;;;;;5105204;27;20047;-59
2022/01/07 05:06:45;;;;;;;18.33;12.60;;;2.90;99.90;;;;;;5103575;27;20402;-59
2022/01/07 05:09:16;;;;;;;19.60;11.90;;;2.90;99.90;;;;;;5103308;27;20043;-58
2022/01/07 05:11:48;;;;;;;19.75;12.77;;;2.90;99.90;;;;;;5119387;27;20105;-58
2022/01/07 05:14:15;;;;;;;21.67;12.95;;;2.90;99.90;;;;;;5104787;27;20055;-57
2022/01/07 05:16:41;;;;;;;21.38;12.60;;;2.90;99.90;;;;;;5106900;27;20515;-57
2022/01/07 05:19:07;;;;;;;18.25;12.07;;;3.00;99.90;;;;;;5106003;27;20116;-58
2022/01/07 05:21:33;;;;;;;17.58;12.93;;;2.90;99.90;;;;;;5111710;27;20050;-57
2022/01/07 05:23:59;;;;;;;17.45;12.63;;;3.00;99.90;;;;;;5101917;27;20063;-59
2022/01/07 05:26:24;;;;;;;20.40;12.70;;;3.00;99.90;;;;;;5098965;27;20085;-58
2022/01/07 05:28:50;;;;;;;20.27;12.43;;;3.00;99.90;;;;;;5112075;27;20055;-57
2022/01/07 05:31:24;;;;;;;17.80;13.07;;;3.00;99.90;;;;;;5122569;27;20109;-57
2022/01/07 05:33:54;;;;;;;19.85;12.00;;;3.00;99.90;;;;;;5124672;27;20051;-59
2022/01/07 05:36:21;;;;;;;19.70;12.15;;;3.00;99.90;;;;;;5122913;27;20055;-58
2022/01/07 05:38:48;;;;;;;20.92;13.15;;;3.00;99.90;;;;;;5123930;27;20046;-57
2022/01/07 05:41:14;;;;;;;18.80;13.00;;;3.00;99.90;;;;;;5107586;27;20137;-59
2022/01/07 05:43:40;;;;;;;18.90;13.50;;;3.10;99.90;;;;;;5126144;27;20347;-59
2022/01/07 05:46:08;;;;;;;18.08;11.88;;;3.10;99.90;;;;;;5123694;27;20036;-59
2022/01/07 05:48:34;;;;;;;19.70;13.18;;;3.10;99.90;;;;;;5110832;27;20043;-58
2022/01/07 05:51:00;;;;;;;19.70;13.18;;;3.10;99.90;;;;;;5121185;27;20047;-57
2022/01/07 05:53:25;;;;;;;22.08;13.20;;;3.10;99.90;;;;;;5126586;27;20062;-58
2022/01/07 05:55:51;;;;;;;22.23;13.23;;;3.10;99.90;;;;;;5090085;27;20404;-57
2022/01/07 05:58:17;;;;;;;20.00;13.07;;;3.20;99.90;;;;;;5127003;27;20134;-57
2022/01/07 06:00:43;;;;;;;22.33;14.48;;;3.20;99.90;;;;;;5122474;27;20047;-58
2022/01/07 06:03:09;;;;;;;22.40;14.50;;;3.20;99.90;;;;;;5119481;27;20047;-58
2022/01/07 06:05:34;;;;;;;20.40;13.43;;;3.20;99.90;;;;;;5080636;27;20533;-58
2022/01/07 06:08:00;;;;;;;24.15;13.43;;;3.20;99.90;;;;;;5121323;27;20096;-58
2022/01/07 06:10:26;;;;;;;18.85;12.93;;;3.20;99.90;;;;;;5122191;27;20498;-56
2022/01/07 06:12:52;;;;;;;22.15;13.60;;;3.20;99.90;;;;;;5129648;27;20114;-58
2022/01/07 06:15:17;;;;;;;21.13;13.73;;;3.20;99.90;;;;;;5110904;27;20085;-58
2022/01/07 06:17:43;;;;;;;20.90;13.27;;;3.20;99.90;;;;;;5123683;27;20054;-58
2022/01/07 06:20:10;;;;;;;18.15;12.82;;;3.20;99.90;;;;;;5129412;27;20095;-59
2022/01/07 06:22:36;;;;;;;21.42;12.65;;;3.30;99.90;;;;;;5125855;27;20049;-57
2022/01/07 06:25:04;;;;;;;19.00;12.40;;;3.30;99.90;;;;;;5126604;27;20043;-58
2022/01/07 06:27:29;;;;;;;18.13;12.15;;;3.30;99.90;;;;;;5122358;27;20585;-58
2022/01/07 06:29:57;;;;;;;15.95;12.20;;;3.20;99.90;;;;;;5122993;27;20044;-58
2022/01/07 06:32:26;;;;;;;17.75;12.07;;;3.30;99.90;;;;;;5125126;27;20049;-57
2022/01/07 06:34:52;;;;;;;19.98;13.15;;;3.20;99.90;;;;;;5092116;27;20520;-58
2022/01/07 06:37:19;;;;;;;19.65;13.05;;;3.20;99.90;;;;;;5125047;27;20051;-59
2022/01/07 06:39:44;;;;;;;16.98;12.45;;;3.20;99.90;;;;;;5122324;27;20255;-57
2022/01/07 06:42:10;;;;;;;22.05;13.27;;;3.20;99.90;;;;;;5105361;27;20055;-58
2022/01/07 06:44:36;;;;;;;20.13;12.88;;;3.30;99.90;;;;;;5107505;27;20409;-58
2022/01/07 06:47:03;;;;;;;20.25;13.20;;;3.20;99.90;;;;;;5121837;27;20044;-58
2022/01/07 06:49:29;;;;;;;17.95;13.93;;;3.30;99.90;;;;;;5118325;27;20058;-57
2022/01/07 06:51:55;;;;;;;21.40;13.38;;;3.30;99.90;;;;;;5104601;27;20503;-57
2022/01/07 06:54:21;;;;;;;22.17;13.18;;;3.30;99.90;;;;;;5122846;27;20035;-58
2022/01/07 06:56:47;;;;;;;19.33;12.73;;;3.30;99.90;;;;;;5122153;27;20057;-57
2022/01/07 06:59:13;;;;;;;18.13;11.85;;;3.30;99.90;;;;;;5129074;27;20100;-59
2022/01/07 07:01:44;;;;;;;17.95;12.73;;;3.30;99.90;;;;;;5107654;27;20039;-59
2022/01/07 07:04:10;;;;;;;21.27;14.32;;;3.30;99.90;;;;;;5094779;27;20039;-58
2022/01/07 07:06:36;;;;;;;20.77;13.85;;;3.30;99.90;;;;;;5127586;27;20496;-58
2022/01/07 07:09:03;;;;;;;21.17;13.63;;;3.30;99.90;;;;;;5080372;27;20074;-58
2022/01/07 07:11:29;;;;;;;17.10;13.57;;;3.30;99.90;;;;;;5128907;27;20090;-57
2022/01/07 07:13:55;;;;;;;23.27;14.73;;;3.40;99.90;;;;;;5116849;27;20035;-59
2022/01/07 07:16:21;;;;;;;20.95;15.45;;;3.30;99.90;;;;;;5131432;27;20495;-60
2022/01/07 07:18:47;;;;;;;21.60;13.10;;;3.40;99.90;;;;;;5134983;27;20042;-58
2022/01/07 07:21:13;;;;;;;21.73;14.35;;;3.40;99.90;;;;;;5125833;27;20054;-58
2022/01/07 07:23:39;;;;;;;18.65;13.30;;;3.40;99.90;;;;;;5115586;27;20405;-56
2022/01/07 07:26:05;;;;;;;20.90;14.43;;;3.40;99.90;;;;;;5132618;27;20070;-58
2022/01/07 07:28:35;;;;;;;21.27;14.48;;;3.40;99.90;;;;;;5136971;27;20123;-58
2022/01/07 07:31:04;;;;;;;22.60;15.55;;;3.40;99.90;;;;;;5118297;27;20497;-57
2022/01/07 07:33:43;;;;;;;29.48;15.75;;;3.40;99.90;;;;;;5113670;27;20051;-58
2022/01/07 07:38:59;;;;;;;26.38;16.10;;;3.50;99.90;;;;;;5124631;27;20047;-58
2022/01/07 07:41:25;;;;;;;27.10;16.45;;;3.50;99.90;;;;;;5102403;27;20052;-58
2022/01/07 07:43:51;;;;;;;21.98;15.73;;;3.60;99.90;;;;;;5123599;27;20089;-56
2022/01/07 07:46:18;;;;;;;24.90;16.05;;;3.60;99.90;;;;;;5124085;27;20145;-59
2022/01/07 07:48:45;;;;;;;27.15;17.10;;;3.60;99.90;;;;;;5127220;27;20541;-57
2022/01/07 07:51:12;;;;;;;23.83;16.50;;;3.70;99.90;;;;;;5127504;27;20063;-58
2022/01/07 07:53:40;;;;;;;30.30;18.55;;;3.70;99.90;;;;;;5123294;27;20504;-57
2022/01/07 07:56:05;;;;;;;25.33;17.65;;;3.70;99.90;;;;;;5108021;27;20478;-58
2022/01/07 07:58:31;;;;;;;27.95;17.92;;;3.70;99.90;;;;;;5105991;27;20045;-58
2022/01/07 08:00:57;;;;;;;28.38;18.80;;;3.70;99.90;;;;;;5119878;27;20051;-57
2022/01/07 08:03:24;;;;;;;27.23;17.38;;;3.80;99.90;;;;;;5117007;27;20055;-58
2022/01/07 08:05:50;;;;;;;29.00;17.85;;;3.70;99.90;;;;;;5094344;27;20070;-58
2022/01/07 08:08:16;;;;;;;30.88;19.33;;;3.70;99.90;;;;;;5115172;27;20046;-57
2022/01/07 08:11:04;;;;;;;30.92;19.40;;;3.80;99.90;;;;;;5118336;27;20047;-58
2022/01/07 08:13:31;;;;;;;27.20;18.58;;;3.80;99.90;;;;;;5113913;27;20576;-56
2022/01/07 08:16:04;;;;;;;31.70;19.42;;;3.80;99.90;;;;;;5101717;27;20035;-56
2022/01/07 08:18:31;;;;;;;34.03;18.45;;;3.80;99.90;;;;;;5090934;27;20047;-58
2022/01/07 08:21:00;;;;;;;33.05;18.67;;;3.90;99.90;;;;;;5108631;27;20113;-58
2022/01/07 08:23:26;;;;;;;31.30;18.83;;;3.90;99.90;;;;;;5100071;27;21168;-58
2022/01/07 08:25:52;;;;;;;29.33;17.90;;;3.90;99.90;;;;;;5120312;27;20055;-59
2022/01/07 08:28:22;;;;;;;34.65;19.58;;;3.90;99.90;;;;;;5115599;27;20086;-58
2022/01/07 08:36:11;;;;;;;29.70;19.38;;;4.00;99.90;;;;;;5117213;27;20676;-57
2022/01/07 08:38:37;;;;;;;32.38;18.65;;;4.00;99.90;;;;;;5079796;27;20150;-58
2022/01/07 08:41:03;;;;;;;35.80;18.83;;;4.00;99.90;;;;;;5115954;27;20045;-57
2022/01/07 08:43:29;;;;;;;29.90;18.67;;;4.10;99.90;;;;;;5119633;27;20034;-57
2022/01/07 08:45:55;;;;;;;33.20;19.05;;;4.00;99.90;;;;;;5097766;27;20116;-58
2022/01/07 08:48:21;;;;;;;30.52;19.08;;;4.00;99.90;;;;;;5115504;27;20053;-57
2022/01/07 08:50:47;;;;;;;35.40;19.73;;;4.00;99.90;;;;;;5107747;27;20126;-58
2022/01/07 08:53:13;;;;;;;36.53;20.58;;;4.00;99.90;;;;;;5115573;27;20777;-58
2022/01/07 08:55:39;;;;;;;32.90;20.35;;;4.10;99.90;;;;;;5112533;27;20039;-57
2022/01/07 08:58:06;;;;;;;33.13;19.10;;;4.10;99.90;;;;;;5116329;27;20417;-57
2022/01/07 09:00:32;;;;;;;35.20;20.75;;;4.10;99.90;;;;;;5111337;27;20046;-58
2022/01/07 09:02:58;;;;;;;39.80;21.52;;;4.10;99.90;;;;;;5114619;27;21422;-56
2022/01/07 09:05:24;;;;;;;37.33;22.40;;;4.10;99.90;;;;;;5113823;27;20100;-57
2022/01/07 09:07:50;;;;;;;36.92;21.10;;;4.10;99.90;;;;;;5115476;27;20047;-58
2022/01/07 09:10:16;;;;;;;40.50;21.42;;;4.10;99.90;;;;;;5112560;27;20501;-58
2022/01/07 09:12:42;;;;;;;32.45;20.00;;;4.20;99.90;;;;;;5119619;27;20031;-59
2022/01/07 09:15:08;;;;;;;36.10;21.42;;;4.30;99.90;;;;;;5097767;27;20043;-59
2022/01/07 09:17:35;;;;;;;34.53;21.08;;;4.20;99.90;;;;;;5116505;27;20043;-57
2022/01/07 09:20:02;;;;;;;35.75;21.40;;;4.30;99.90;;;;;;5116022;27;20050;-58
2022/01/07 09:22:28;;;;;;;44.47;21.02;;;4.30;99.90;;;;;;5119485;27;20054;-56
2022/01/07 09:24:54;;;;;;;40.20;21.90;;;4.30;99.90;;;;;;5112374;27;20047;-59
2022/01/07 09:27:20;;;;;;;34.30;22.55;;;4.40;99.90;;;;;;5114898;27;20118;-57
2022/01/07 09:29:46;;;;;;;39.17;21.08;;;4.40;99.90;;;;;;5114800;27;20653;-57
2022/01/07 09:32:12;;;;;;;33.63;21.50;;;4.40;99.90;;;;;;5099942;27;20072;-59
2022/01/07 09:34:38;;;;;;;38.50;21.17;;;4.50;99.90;;;;;;5116935;27;20045;-57
2022/01/07 09:37:05;;;;;;;38.70;21.38;;;4.50;99.90;;;;;;5122269;27;20278;-55
2022/01/07 09:39:32;;;;;;;39.00;22.67;;;4.50;99.90;;;;;;5092735;27;20047;-58
2022/01/07 09:42:02;;;;;;;39.00;21.00;;;4.60;99.90;;;;;;5116792;27;20071;-58
2022/01/07 09:44:28;;;;;;;37.67;21.88;;;4.60;99.90;;;;;;5095904;27;20148;-58
2022/01/07 09:46:54;;;;;;;40.55;22.70;;;4.60;99.90;;;;;;5112170;27;20126;-58
2022/01/07 09:49:20;;;;;;;36.85;21.65;;;4.60;99.90;;;;;;5114984;27;20559;-59
2022/01/07 09:51:47;;;;;;;36.10;21.00;;;4.70;99.90;;;;;;5109783;27;20070;-58
2022/01/07 09:54:12;;;;;;;32.40;20.15;;;4.60;99.90;;;;;;5116515;27;20039;-57
2022/01/07 09:56:39;;;;;;;32.88;19.98;;;4.70;99.90;;;;;;5115659;27;20528;-59
2022/01/07 09:59:07;;;;;;;30.70;18.88;;;4.70;99.90;;;;;;5113376;27;20111;-56
2022/01/07 10:01:57;;;;;;;32.78;19.30;;;4.70;99.90;;;;;;5094923;27;20206;-57
2022/01/07 10:04:43;;;;;;;36.17;19.52;;;4.70;99.90;;;;;;5097434;27;20042;-58
2022/01/07 10:07:24;;;;;;;33.05;18.38;;;4.60;99.90;;;;;;5096173;27;20043;-58
2022/01/07 10:10:02;;;;;;;24.67;15.48;;;4.60;99.90;;;;;;5113399;27;20043;-57
2022/01/07 10:12:30;;;;;;;29.90;15.88;;;4.60;99.90;;;;;;5112883;27;20042;-57
2022/01/07 10:15:17;;;;;;;27.42;15.63;;;4.60;99.90;;;;;;5113844;27;20215;-58
2022/01/07 10:17:55;;;;;;;22.33;13.30;;;4.60;99.90;;;;;;5113928;27;20111;-54
2022/01/07 10:20:27;;;;;;;19.08;10.40;;;4.60;99.90;;;;;;5094982;27;20043;-58
2022/01/07 10:22:57;;;;;;;14.43;8.63;;;4.60;99.90;;;;;;5077638;27;20577;-57
2022/01/07 10:25:26;;;;;;;13.23;7.78;;;4.60;99.90;;;;;;5089282;27;20042;-57
2022/01/07 10:27:52;;;;;;;9.65;5.82;;;4.60;99.90;;;;;;5116196;27;20039;-58
2022/01/07 10:30:25;;;;;;;9.52;5.82;;;4.60;99.90;;;;;;5118245;27;20499;-58
2022/01/07 10:32:56;;;;;;;9.85;5.18;;;4.60;99.90;;;;;;5091118;27;20567;-56
2022/01/07 10:35:24;;;;;;;8.43;4.88;;;4.60;99.90;;;;;;5110245;27;20463;-57
2022/01/07 10:38:01;;;;;;;7.85;5.28;;;4.60;99.90;;;;;;5092712;27;20051;-59
2022/01/07 10:40:36;;;;;;;7.78;5.32;;;4.60;99.90;;;;;;5111958;27;20047;-58
2022/01/07 10:43:15;;;;;;;7.22;4.78;;;4.70;99.90;;;;;;5112649;27;20043;-57
2022/01/07 10:45:44;;;;;;;7.22;4.65;;;4.80;99.90;;;;;;5110843;27;20086;-57
2022/01/07 10:48:11;;;;;;;11.90;5.05;;;4.80;99.90;;;;;;5114080;27;20036;-57
2022/01/07 10:50:46;;;;;;;8.40;4.40;;;4.90;99.90;;;;;;5101401;27;20043;-58
2022/01/07 10:53:26;;;;;;;5.68;3.33;;;4.90;99.90;;;;;;5110977;27;20047;-59
2022/01/07 10:56:05;;;;;;;7.25;3.55;;;4.90;99.90;;;;;;5110662;27;20161;-58
2022/01/07 10:59:08;;;;;;;5.53;3.00;;;4.80;99.90;;;;;;5102239;27;20114;-59
2022/01/07 11:01:44;;;;;;;7.23;3.03;;;4.90;99.90;;;;;;5103111;27;20047;-57
2022/01/07 11:04:32;;;;;;;5.95;2.75;;;5.00;99.90;;;;;;5100713;27;20088;-58
2022/01/07 11:07:02;;;;;;;11.00;3.17;;;5.00;99.90;;;;;;5109250;27;20039;-59
2022/01/07 11:09:28;;;;;;;6.65;3.33;;;5.00;99.90;;;;;;5089540;27;20043;-58
2022/01/07 11:11:57;;;;;;;7.47;3.13;;;5.00;99.90;;;;;;5097836;27;20035;-57
2022/01/07 11:14:26;;;;;;;5.25;2.72;;;5.00;99.90;;;;;;5114638;27;20039;-57
2022/01/07 11:16:54;;;;;;;9.68;3.30;;;5.00;99.90;;;;;;5116808;27;20107;-58
2022/01/07 11:19:23;;;;;;;10.23;3.38;;;4.90;99.90;;;;;;5115224;27;20073;-56
2022/01/07 11:21:52;;;;;;;9.63;4.22;;;4.90;99.90;;;;;;5093873;27;20568;-57
2022/01/07 11:24:35;;;;;;;7.85;3.33;;;4.90;99.90;;;;;;5112237;27;20069;-57
2022/01/07 11:27:07;;;;;;;10.10;3.40;;;4.90;99.90;;;;;;5094978;27;20074;-58
2022/01/07 11:29:45;;;;;;;9.65;3.80;;;4.90;99.90;;;;;;5097571;27;20171;-58
2022/01/07 11:32:26;;;;;;;9.85;4.93;;;4.90;99.90;;;;;;5111844;27;20047;-59
2022/01/07 11:34:53;;;;;;;13.98;5.57;;;5.00;99.90;;;;;;5112275;27;20730;-58
2022/01/07 11:37:36;;;;;;;12.40;5.00;;;5.00;99.90;;;;;;5092544;27;20556;-58
2022/01/07 11:40:03;;;;;;;13.13;5.28;;;5.00;99.90;;;;;;5111638;27;20055;-58
2022/01/07 11:42:44;;;;;;;12.98;5.68;;;5.00;99.90;;;;;;5111381;27;20050;-57
2022/01/07 11:45:28;;;;;;;14.60;6.47;;;5.00;99.90;;;;;;5115921;27;20098;-58
2022/01/07 11:48:14;;;;;;;13.32;6.57;;;5.10;99.90;;;;;;5117241;27;20450;-58
2022/01/07 11:50:55;;;;;;;14.57;7.10;;;5.10;99.90;;;;;;5126684;27;20043;-56
2022/01/07 11:53:25;;;;;;;13.02;7.47;;;5.10;99.90;;;;;;5114717;27;20673;-58
2022/01/07 11:55:57;;;;;;;18.38;8.15;;;5.10;99.90;;;;;;5111847;27;20184;-57
2022/01/07 11:58:56;;;;;;;15.95;8.43;;;5.10;99.90;;;;;;5111488;27;20039;-58
2022/01/07 12:01:30;;;;;;;17.90;9.30;;;5.20;99.90;;;;;;5088752;27;20047;-58
2022/01/07 12:04:03;;;;;;;20.80;9.30;;;5.20;99.90;;;;;;5097341;27;20078;-57
2022/01/07 12:06:29;;;;;;;21.67;9.60;;;5.20;99.90;;;;;;5081610;27;20039;-58
2022/01/07 12:09:10;;;;;;;22.42;9.43;;;5.20;99.90;;;;;;5109603;27;20508;-57
2022/01/07 12:11:36;;;;;;;17.95;8.80;;;5.30;99.90;;;;;;5110740;27;20134;-58
2022/01/07 12:14:16;;;;;;;19.52;9.10;;;5.40;99.90;;;;;;5085581;27;20049;-58
2022/01/07 12:16:44;;;;;;;19.10;9.48;;;5.50;99.90;;;;;;5112461;27;20604;-58
2022/01/07 12:19:19;;;;;;;22.77;9.48;;;5.50;99.90;;;;;;5111734;27;20137;-59
2022/01/07 12:21:53;;;;;;;18.67;9.00;;;5.70;99.90;;;;;;5112235;27;20069;-58
2022/01/07 12:24:25;;;;;;;18.25;9.10;;;5.80;99.90;;;;;;5096628;27;20053;-58
2022/01/07 12:27:07;;;;;;;19.95;10.25;;;5.90;99.90;;;;;;5115610;27;20166;-57
2022/01/07 12:29:36;;;;;;;14.90;9.85;;;6.00;99.90;;;;;;5111026;27;20059;-57
2022/01/07 12:32:04;;;;;;;18.80;9.27;;;6.00;99.90;;;;;;5079063;27;21286;-59
2022/01/07 12:34:33;;;;;;;19.40;8.25;;;6.10;99.90;;;;;;5094710;27;20058;-57
2022/01/07 12:37:05;;;;;;;17.48;8.80;;;6.10;99.90;;;;;;5114813;27;20061;-57
2022/01/07 12:39:42;;;;;;;19.02;9.65;;;6.10;99.90;;;;;;5119811;27;20074;-57
2022/01/07 12:42:10;;;;;;;17.48;8.98;;;6.00;99.90;;;;;;5121196;27;20091;-58
2022/01/07 12:44:39;;;;;;;15.23;8.20;;;6.00;99.90;;;;;;5125820;27;20051;-59
2022/01/07 12:47:06;;;;;;;14.27;7.72;;;6.00;99.90;;;;;;5127201;27;20135;-56
2022/01/07 12:49:37;;;;;;;19.80;7.57;;;5.90;99.90;;;;;;5120391;27;20071;-58
2022/01/07 12:52:06;;;;;;;13.82;7.30;;;5.90;99.90;;;;;;5120937;27;20525;-58
2022/01/07 12:54:32;;;;;;;14.38;6.70;;;5.90;99.90;;;;;;5123948;27;20051;-59